Time;durP1;ratioP1;P1;durP2;ratioP2;P2;SDS_P1;SDS_P2;PMS_P1;PMS_P2;Temp;Humidity;BMP_temperature;BMP_pressure;BME280_temperature;BME280_humidity;BME280_pressure;Samples;Min_cycle;Max_cycle;Signal;HPM_P1;HPM_P2
2023/03/27 00:01:50;;;;;;;3.35;1.00;;;;;;;2.85;100.00;99987.94;6285979;28;20109;-87
2023/03/27 00:04:53;;;;;;;5.80;1.02;;;;;;;2.77;100.00;99985.81;6284263;28;20089;-87
2023/03/27 00:07:55;;;;;;;7.15;1.75;;;;;;;2.78;100.00;99990.84;6290176;28;20036;-87
2023/03/27 00:10:57;;;;;;;3.60;0.90;;;;;;;2.69;100.00;99998.22;6291643;28;20167;-88
2023/03/27 00:13:59;;;;;;;6.55;2.67;;;;;;;2.57;100.00;100012.47;6288435;28;20036;-88
2023/03/27 00:17:01;;;;;;;4.43;1.35;;;;;;;2.38;100.00;100020.28;6286091;28;20049;-87
2023/03/27 00:20:04;;;;;;;4.03;1.00;;;;;;;2.35;100.00;100017.88;6283338;28;20047;-87
2023/03/27 00:23:06;;;;;;;5.57;1.15;;;;;;;2.35;100.00;100023.81;6285505;28;20086;-88
2023/03/27 00:26:08;;;;;;;8.70;1.35;;;;;;;2.20;100.00;100028.91;6293850;28;20130;-87
2023/03/27 00:29:12;;;;;;;6.18;1.42;;;;;;;2.04;100.00;100044.22;6294940;28;20047;-88
2023/03/27 00:32:14;;;;;;;3.83;1.08;;;;;;;2.02;100.00;100041.72;6284095;28;20077;-88
2023/03/27 00:35:16;;;;;;;4.57;1.23;;;;;;;1.88;100.00;100046.72;6285680;28;20385;-87
2023/03/27 00:38:18;;;;;;;4.78;1.00;;;;;;;1.78;100.00;100050.63;6284522;28;20554;-87
2023/03/27 00:41:22;;;;;;;6.90;1.30;;;;;;;1.60;100.00;100055.75;6282508;28;20045;-87
2023/03/27 00:44:30;;;;;;;5.55;1.27;;;;;;;1.59;100.00;100066.88;6295761;28;20044;-87
2023/03/27 00:47:36;;;;;;;2.45;0.90;;;;;;;1.41;100.00;100070.28;6282289;28;20052;-87
2023/03/27 00:50:41;;;;;;;4.45;1.90;;;;;;;1.38;100.00;100080.66;6272337;28;20045;-88
2023/03/27 00:53:46;;;;;;;6.72;1.23;;;;;;;1.28;100.00;100083.63;6279385;28;20048;-87
2023/03/27 00:56:48;;;;;;;6.15;1.35;;;;;;;1.29;100.00;100080.19;6280809;28;20123;-87
2023/03/27 00:59:53;;;;;;;4.43;1.23;;;;;;;1.26;100.00;100087.16;6294602;28;20413;-87
2023/03/27 01:02:55;;;;;;;6.55;1.92;;;;;;;1.31;100.00;100097.94;6289930;28;20106;-88
2023/03/27 01:06:03;;;;;;;7.55;1.35;;;;;;;1.29;100.00;100094.66;6292864;28;20505;-87
2023/03/27 01:09:04;;;;;;;9.38;1.92;;;;;;;1.21;100.00;100091.63;6269819;28;20476;-87
2023/03/27 01:12:35;;;;;;;7.72;1.63;;;;;;;1.10;100.00;100093.88;6290191;28;20041;-87
2023/03/27 01:16:13;;;;;;;5.90;1.40;;;;;;;1.18;100.00;100110.47;6290887;28;20050;-87
2023/03/27 01:19:47;;;;;;;8.18;1.80;;;;;;;1.05;100.00;100106.84;6272968;28;20049;-87
2023/03/27 01:23:04;;;;;;;3.58;1.23;;;;;;;1.05;100.00;100110.22;6276529;28;20116;-88
2023/03/27 01:26:16;;;;;;;7.20;2.28;;;;;;;1.00;100.00;100117.25;6281225;28;20047;-87
2023/03/27 01:29:47;;;;;;;3.50;1.08;;;;;;;0.75;100.00;100125.16;6293536;28;20049;-87
2023/03/27 01:33:28;;;;;;;10.02;1.70;;;;;;;0.91;100.00;100125.28;6235861;28;20053;-87
2023/03/27 01:36:45;;;;;;;4.57;1.13;;;;;;;0.76;100.00;100126.00;6280992;28;20101;-88
2023/03/27 01:39:47;;;;;;;4.95;1.30;;;;;;;0.71;100.00;100127.91;6276940;28;20082;-87
2023/03/27 01:42:49;;;;;;;5.43;1.20;;;;;;;0.49;100.00;100141.59;6266780;28;20406;-87
2023/03/27 01:46:05;;;;;;;4.80;1.25;;;;;;;0.59;100.00;100134.38;6279638;28;20037;-87
2023/03/27 01:49:18;;;;;;;5.57;1.88;;;;;;;0.54;100.00;100133.75;6281356;28;20530;-87
2023/03/27 01:52:26;;;;;;;6.43;2.22;;;;;;;0.43;100.00;100141.88;6280531;28;20462;-87
2023/03/27 01:55:33;;;;;;;12.13;1.80;;;;;;;0.40;100.00;100149.66;6281756;28;20106;-87
2023/03/27 01:58:45;;;;;;;10.55;1.75;;;;;;;0.36;100.00;100145.56;6277397;28;20040;-87
2023/03/27 02:01:57;;;;;;;9.32;1.90;;;;;;;0.33;100.00;100146.53;6289669;28;20257;-87
2023/03/27 02:05:10;;;;;;;8.15;1.25;;;;;;;0.38;100.00;100148.88;6280062;28;20087;-87
2023/03/27 02:08:45;;;;;;;6.25;1.40;;;;;;;0.42;100.00;100152.94;6281404;28;20055;-87
2023/03/27 02:12:18;;;;;;;6.07;1.27;;;;;;;0.29;100.00;100154.34;6285037;28;20074;-87
2023/03/27 02:15:29;;;;;;;3.83;1.00;;;;;;;0.31;100.00;100167.84;6269486;28;20063;-87
2023/03/27 02:18:38;;;;;;;5.38;1.20;;;;;;;0.23;100.00;100168.16;6286984;28;20040;-87
2023/03/27 02:21:40;;;;;;;6.70;0.93;;;;;;;0.14;100.00;100164.28;6286816;28;20528;-86
2023/03/27 02:24:45;;;;;;;13.48;1.55;;;;;;;0.19;100.00;100174.28;6282256;28;20045;-87
2023/03/27 02:27:51;;;;;;;3.90;1.33;;;;;;;0.05;100.00;100174.84;6285245;28;20042;-87
2023/03/27 02:31:09;;;;;;;8.80;1.65;;;;;;;0.02;100.00;100180.03;6277427;28;20047;-87
2023/03/27 02:35:08;;;;;;;6.25;1.35;;;;;;;0.11;100.00;100187.31;6281958;28;20041;-87
2023/03/27 02:38:29;;;;;;;4.55;1.08;;;;;;;0.23;100.00;100202.97;6287064;28;20156;-87
2023/03/27 02:42:11;;;;;;;4.90;1.55;;;;;;;0.30;100.00;100210.28;6270181;28;20585;-87
2023/03/27 02:45:35;;;;;;;8.10;1.30;;;;;;;0.36;100.00;100206.66;6281744;28;20498;-87
2023/03/27 02:48:46;;;;;;;6.65;1.20;;;;;;;0.29;100.00;100215.44;6277043;28;20054;-87
2023/03/27 02:52:02;;;;;;;4.90;1.08;;;;;;;0.14;100.00;100215.19;6304673;28;20044;-87
2023/03/27 02:55:13;;;;;;;3.30;1.10;;;;;;;0.06;100.00;100211.31;6286713;28;20505;-87
2023/03/27 02:58:21;;;;;;;9.67;2.80;;;;;;;-0.03;100.00;100220.13;6275338;28;20044;-87
2023/03/27 03:01:39;;;;;;;4.00;1.25;;;;;;;-0.07;100.00;100219.44;6280810;28;20352;-87
2023/03/27 03:04:59;;;;;;;4.95;1.20;;;;;;;-0.09;100.00;100226.28;6291788;28;20101;-87
2023/03/27 03:08:10;;;;;;;6.80;1.20;;;;;;;-0.02;100.00;100230.25;6289823;28;20072;-87
2023/03/27 03:11:13;;;;;;;11.27;2.20;;;;;;;-0.01;100.00;100223.44;6292611;28;20040;-87
2023/03/27 03:14:19;;;;;;;4.15;1.05;;;;;;;-0.01;100.00;100225.97;6288679;28;20067;-87
2023/03/27 03:17:21;;;;;;;10.98;2.40;;;;;;;-0.02;100.00;100235.34;6284405;28;20047;-87
2023/03/27 03:20:23;;;;;;;6.13;1.35;;;;;;;-0.05;100.00;100238.00;6290656;28;20450;-87
2023/03/27 03:23:25;;;;;;;9.60;1.33;;;;;;;-0.04;100.00;100238.81;6287437;28;20043;-87
2023/03/27 03:26:27;;;;;;;3.20;1.10;;;;;;;-0.04;100.00;100241.38;6271513;28;20048;-87
2023/03/27 03:29:34;;;;;;;5.15;1.40;;;;;;;0.05;100.00;100243.56;6288641;28;20052;-88
2023/03/27 03:32:50;;;;;;;8.32;3.65;;;;;;;0.00;100.00;100248.00;6286288;28;20040;-87
2023/03/27 03:35:52;;;;;;;5.30;1.10;;;;;;;-0.05;100.00;100258.34;6291373;28;20041;-87
2023/03/27 03:39:02;;;;;;;11.77;2.08;;;;;;;-0.01;100.00;100269.22;6275053;28;20076;-86
2023/03/27 03:42:04;;;;;;;10.85;2.10;;;;;;;0.01;100.00;100269.19;6271107;28;20405;-87
2023/03/27 03:45:06;;;;;;;8.88;1.92;;;;;;;0.10;100.00;100284.91;6285586;28;20044;-87
2023/03/27 03:48:08;;;;;;;6.15;1.40;;;;;;;0.15;100.00;100277.94;6299375;28;20518;-87
2023/03/27 03:51:10;;;;;;;8.85;1.60;;;;;;;0.16;100.00;100279.56;6294989;28;20299;-87
2023/03/27 03:54:12;;;;;;;6.75;1.48;;;;;;;0.25;100.00;100286.03;6288195;28;20395;-87
2023/03/27 03:57:17;;;;;;;7.38;1.30;;;;;;;0.28;100.00;100292.72;6296818;28;20494;-87
2023/03/27 04:00:38;;;;;;;7.40;1.50;;;;;;;0.36;100.00;100288.13;6290293;28;20406;-87
2023/03/27 04:03:47;;;;;;;6.03;1.42;;;;;;;0.24;100.00;100296.25;6286680;28;20074;-87
2023/03/27 04:06:51;;;;;;;6.53;1.13;;;;;;;0.19;100.00;100297.25;6284612;28;20415;-87
2023/03/27 04:09:54;;;;;;;5.20;1.55;;;;;;;0.05;100.00;100309.72;6283976;28;20083;-87
2023/03/27 04:13:05;;;;;;;7.57;1.60;;;;;;;-0.05;100.00;100300.75;6287903;28;20396;-87
2023/03/27 04:16:11;;;;;;;7.03;1.73;;;;;;;-0.12;100.00;100307.81;6286491;28;20517;-87
2023/03/27 04:19:17;;;;;;;6.10;1.45;;;;;;;-0.13;100.00;100306.16;6289337;28;20275;-87
2023/03/27 04:22:25;;;;;;;5.50;2.38;;;;;;;-0.07;100.00;100311.00;6287180;28;20843;-87
2023/03/27 04:25:27;;;;;;;5.50;1.55;;;;;;;-0.06;100.00;100315.19;6278269;28;20106;-87
2023/03/27 04:28:33;;;;;;;10.10;1.63;;;;;;;-0.13;100.00;100323.94;6282618;28;20182;-87
2023/03/27 04:31:57;;;;;;;6.93;1.73;;;;;;;-0.15;100.00;100337.63;6290569;28;20043;-87
2023/03/27 04:35:37;;;;;;;5.47;1.30;;;;;;;-0.14;100.00;100336.75;6228246;28;20438;-87
2023/03/27 04:38:53;;;;;;;7.13;2.00;;;;;;;-0.22;100.00;100337.84;6204196;28;20052;-86
2023/03/27 04:41:57;;;;;;;6.40;2.75;;;;;;;-0.15;100.00;100342.69;6216804;28;20125;-87
2023/03/27 04:45:03;;;;;;;7.13;1.77;;;;;;;-0.17;100.00;100341.91;6217364;28;20142;-87
2023/03/27 04:48:06;;;;;;;5.93;1.48;;;;;;;-0.15;100.00;100352.88;6244075;28;20132;-87
2023/03/27 04:51:08;;;;;;;6.95;2.47;;;;;;;-0.18;100.00;100355.53;6215315;28;20225;-87
2023/03/27 04:54:10;;;;;;;4.82;1.02;;;;;;;-0.15;100.00;100360.50;6221287;28;20049;-87
2023/03/27 04:57:17;;;;;;;8.27;1.30;;;;;;;-0.13;100.00;100374.00;6216919;28;20049;-87
2023/03/27 05:00:22;;;;;;;15.23;2.35;;;;;;;-0.08;100.00;100369.56;6232636;28;20053;-87
2023/03/27 05:03:42;;;;;;;;;;;;;;;-0.27;100.00;100377.06;6232899;28;20053;-87
2023/03/27 05:06:52;;;;;;;4.78;1.92;;;;;;;-0.24;100.00;100380.31;6271011;28;20293;-87
2023/03/27 05:09:56;;;;;;;4.97;1.65;;;;;;;-0.04;100.00;100374.50;6284032;28;20117;-86
2023/03/27 05:13:01;;;;;;;5.25;1.08;;;;;;;-0.11;100.00;100372.22;6284378;28;20052;-87
2023/03/27 05:16:03;;;;;;;6.03;1.67;;;;;;;-0.11;100.00;100387.50;6293474;28;20044;-87
2023/03/27 05:19:13;;;;;;;5.57;1.13;;;;;;;-0.17;100.00;100397.88;6295136;28;20078;-87
2023/03/27 05:22:23;;;;;;;7.93;1.52;;;;;;;-0.20;100.00;100395.47;6278128;28;20084;-87
2023/03/27 05:25:35;;;;;;;8.25;1.40;;;;;;;-0.16;100.00;100397.84;6285440;28;20127;-86
2023/03/27 05:28:39;;;;;;;7.32;1.85;;;;;;;-0.15;100.00;100406.28;6290389;28;20056;-87
2023/03/27 05:31:42;;;;;;;4.18;1.10;;;;;;;-0.21;100.00;100402.25;6296438;28;20409;-87
2023/03/27 05:35:20;;;;;;;8.68;1.13;;;;;;;-0.15;100.00;100401.22;6289620;28;20074;-86
2023/03/27 05:38:23;;;;;;;6.05;1.55;;;;;;;-0.02;100.00;100412.59;6255644;28;20056;-86
2023/03/27 05:41:44;;;;;;;5.93;1.98;;;;;;;-0.03;100.00;100427.03;6283371;28;20128;-86
2023/03/27 05:44:54;;;;;;;;;;;;;;;0.02;100.00;100424.31;6288480;28;20500;-86
2023/03/27 05:48:01;;;;;;;5.35;1.60;;;;;;;0.07;100.00;100429.22;6286189;28;19924;-86
2023/03/27 05:51:09;;;;;;;13.07;3.20;;;;;;;0.26;100.00;100431.94;6271159;28;20048;-86
2023/03/27 05:54:11;;;;;;;3.97;1.40;;;;;;;0.24;100.00;100436.25;6282571;28;20135;-87
2023/03/27 05:57:22;;;;;;;4.43;1.65;;;;;;;0.14;100.00;100431.50;6288009;28;20060;-86
2023/03/27 06:00:31;;;;;;;7.40;3.15;;;;;;;0.12;100.00;100440.91;6261534;28;20399;-86
2023/03/27 06:03:37;;;;;;;4.15;1.38;;;;;;;0.26;100.00;100442.94;6283626;28;20059;-86
2023/03/27 06:06:45;;;;;;;4.50;1.63;;;;;;;0.30;100.00;100448.72;6286988;28;20083;-86
2023/03/27 06:09:48;;;;;;;2.97;1.35;;;;;;;0.20;100.00;100454.19;6286686;28;20040;-87
2023/03/27 06:13:28;;;;;;;4.13;1.58;;;;;;;0.28;100.00;100458.16;6210182;28;20045;-86
2023/03/27 06:16:40;;;;;;;6.18;1.63;;;;;;;0.30;100.00;100469.09;6215263;28;20045;-86
2023/03/27 06:20:11;;;;;;;6.65;1.80;;;;;;;0.25;100.00;100466.75;6207261;28;20376;-86
2023/03/27 06:23:15;;;;;;;5.10;1.42;;;;;;;0.24;100.00;100474.44;6220171;28;20578;-86
2023/03/27 06:26:18;;;;;;;3.03;1.25;;;;;;;0.43;100.00;100475.41;6217583;28;20052;-87
2023/03/27 06:29:20;;;;;;;4.07;1.40;;;;;;;0.59;100.00;100476.47;6202435;28;20577;-86
2023/03/27 06:32:24;;;;;;;3.10;1.65;;;;;;;0.56;100.00;100468.94;6199124;28;20397;-86
2023/03/27 06:35:31;;;;;;;4.20;1.50;;;;;;;0.54;100.00;100488.53;6219395;28;20136;-86
2023/03/27 06:38:46;;;;;;;7.05;1.70;;;;;;;0.62;100.00;100481.47;6226364;28;20056;-86
2023/03/27 06:41:48;;;;;;;3.88;1.50;;;;;;;0.65;100.00;100480.50;6209359;28;20670;-86
2023/03/27 06:45:09;;;;;;;8.70;1.73;;;;;;;0.79;100.00;100487.59;6269063;28;20525;-87
2023/03/27 06:48:29;;;;;;;5.80;1.70;;;;;;;0.86;100.00;100489.03;6288240;28;20041;-87
2023/03/27 06:51:36;;;;;;;11.35;2.28;;;;;;;0.88;100.00;100499.16;6289862;28;20087;-86
2023/03/27 06:54:40;;;;;;;5.40;1.98;;;;;;;0.80;100.00;100507.13;6285759;28;20048;-86
2023/03/27 06:57:48;;;;;;;3.33;1.40;;;;;;;0.98;100.00;100503.81;6294781;28;20126;-86
2023/03/27 07:00:52;;;;;;;9.48;2.58;;;;;;;0.98;100.00;100510.66;6289778;28;20059;-86
2023/03/27 07:03:54;;;;;;;8.48;1.73;;;;;;;1.00;100.00;100508.88;6286482;28;20080;-86
2023/03/27 07:07:15;;;;;;;6.50;1.73;;;;;;;1.03;100.00;100517.22;6289168;28;20052;-86
2023/03/27 07:10:17;;;;;;;6.15;1.52;;;;;;;1.14;100.00;100528.69;6286542;28;20072;-86
2023/03/27 07:13:22;;;;;;;9.10;1.90;;;;;;;1.16;100.00;100521.84;6275828;28;20051;-86
2023/03/27 07:16:24;;;;;;;6.43;2.25;;;;;;;1.24;100.00;100540.19;6302795;28;20047;-86
2023/03/27 07:19:26;;;;;;;8.80;2.50;;;;;;;1.33;100.00;100546.66;6284151;28;20093;-87
2023/03/27 07:22:40;;;;;;;;;;;;;;;1.43;100.00;100542.84;6285885;28;20519;-86
2023/03/27 07:25:43;;;;;;;2.28;1.38;;;;;;;1.52;100.00;100552.69;6294475;28;19934;-86
2023/03/27 07:28:54;;;;;;;6.22;1.73;;;;;;;1.48;100.00;100544.31;6281855;28;20041;-86
2023/03/27 07:31:56;;;;;;;4.82;1.63;;;;;;;1.58;100.00;100554.97;6261328;28;20071;-85
2023/03/27 07:35:18;;;;;;;6.28;1.88;;;;;;;1.62;100.00;100550.56;6289374;28;20051;-84
2023/03/27 07:38:40;;;;;;;5.10;1.70;;;;;;;1.78;100.00;100566.88;6288192;28;20079;-84
2023/03/27 07:41:51;;;;;;;7.65;1.60;;;;;;;1.81;100.00;100560.81;6288477;28;20498;-84
2023/03/27 07:45:12;;;;;;;7.90;2.22;;;;;;;1.97;100.00;100559.28;6261457;28;20051;-84
2023/03/27 07:48:14;;;;;;;4.10;1.88;;;;;;;2.18;100.00;100554.97;6284658;28;20498;-84
2023/03/27 07:51:18;;;;;;;4.97;1.90;;;;;;;2.36;100.00;100564.41;6292322;28;20427;-84
2023/03/27 07:54:20;;;;;;;6.30;1.52;;;;;;;2.46;100.00;100564.81;6290716;28;20185;-86
2023/03/27 07:57:26;;;;;;;6.15;1.50;;;;;;;2.55;100.00;100568.66;6287834;28;20048;-84
2023/03/27 08:00:37;;;;;;;7.35;1.92;;;;;;;2.45;100.00;100570.81;6277190;28;20044;-84
2023/03/27 08:03:47;;;;;;;6.45;1.50;;;;;;;2.49;100.00;100574.91;6286064;28;20056;-84
2023/03/27 08:06:53;;;;;;;5.72;2.25;;;;;;;2.64;100.00;100582.78;6286404;28;20044;-84
2023/03/27 08:09:57;;;;;;;5.68;1.92;;;;;;;2.90;100.00;100582.41;6293508;28;20044;-84
2023/03/27 08:12:59;;;;;;;6.03;2.13;;;;;;;3.20;100.00;100592.09;6300916;28;20051;-84
2023/03/27 08:16:16;;;;;;;4.63;1.55;;;;;;;3.58;100.00;100580.03;6285630;28;20111;-84
2023/03/27 08:19:20;;;;;;;5.85;1.70;;;;;;;3.87;100.00;100577.75;6278435;28;20048;-84
2023/03/27 08:22:26;;;;;;;8.23;1.60;;;;;;;4.14;100.00;100590.88;6291166;28;20334;-84
2023/03/27 08:25:54;;;;;;;6.55;2.03;;;;;;;4.38;100.00;100598.22;6256576;28;20114;-84
2023/03/27 08:28:59;;;;;;;6.18;2.08;;;;;;;4.27;100.00;100589.38;6240346;28;20512;-84
2023/03/27 08:32:10;;;;;;;8.35;1.85;;;;;;;4.26;100.00;100584.31;6240470;28;20061;-84
2023/03/27 08:35:14;;;;;;;5.43;1.90;;;;;;;4.31;100.00;100590.84;6249504;28;20056;-84
2023/03/27 08:38:17;;;;;;;5.25;1.80;;;;;;;4.31;100.00;100592.59;6253868;28;20080;-84
2023/03/27 08:42:03;;;;;;;5.25;1.67;;;;;;;4.42;100.00;100592.03;6135916;28;20055;-84
2023/03/27 08:45:18;;;;;;;5.82;1.83;;;;;;;4.24;100.00;100604.06;6136250;28;20059;-84
2023/03/27 08:48:32;;;;;;;6.75;1.85;;;;;;;4.35;100.00;100600.94;6136322;28;20039;-84
2023/03/27 08:51:47;;;;;;;8.60;1.70;;;;;;;4.68;100.00;100608.59;6102452;29;20181;-84
2023/03/27 08:54:57;;;;;;;5.55;1.60;;;;;;;4.97;100.00;100612.19;6129300;28;20565;-84
2023/03/27 08:58:17;;;;;;;5.18;1.63;;;;;;;4.95;100.00;100608.88;6132056;28;20051;-84
2023/03/27 09:02:12;;;;;;;9.32;1.77;;;;;;;4.80;100.00;100612.25;6135234;28;20421;-84
2023/03/27 09:05:39;;;;;;;4.40;1.40;;;;;;;4.94;100.00;100622.59;6044938;29;20526;-84
2023/03/27 09:08:41;;;;;;;4.80;1.70;;;;;;;4.94;100.00;100628.56;6052959;29;20052;-84
2023/03/27 09:12:25;;;;;;;3.35;1.40;;;;;;;4.61;100.00;100628.59;6054807;29;20547;-84
2023/03/27 09:15:31;;;;;;;7.00;1.40;;;;;;;4.72;100.00;100621.19;6045048;29;20060;-84
2023/03/27 09:18:37;;;;;;;6.85;1.85;;;;;;;4.99;100.00;100622.34;6130074;28;20513;-85
2023/03/27 09:22:00;;;;;;;4.43;1.25;;;;;;;4.93;100.00;100633.78;6125322;28;20051;-84
2023/03/27 09:25:45;;;;;;;4.25;1.42;;;;;;;5.30;100.00;100632.59;6123273;28;20505;-84
2023/03/27 09:29:18;;;;;;;4.20;1.38;;;;;;;5.59;100.00;100622.44;6129182;29;20055;-84
2023/03/27 09:32:26;;;;;;;5.97;1.40;;;;;;;5.75;100.00;100636.06;6118694;29;20056;-84
2023/03/27 09:35:37;;;;;;;6.65;1.52;;;;;;;5.73;100.00;100632.75;6120293;28;20051;-84
2023/03/27 09:38:43;;;;;;;4.63;1.95;;;;;;;5.61;100.00;100630.88;6153238;28;20652;-84
2023/03/27 09:42:01;;;;;;;3.85;1.40;;;;;;;5.46;100.00;100636.88;6194833;28;20050;-84
2023/03/27 09:45:11;;;;;;;4.78;1.45;;;;;;;5.61;100.00;100646.28;6165423;28;20411;-84
2023/03/27 09:48:33;;;;;;;5.13;1.45;;;;;;;5.81;100.00;100637.44;6183858;28;20046;-84
2023/03/27 09:51:57;;;;;;;7.32;1.30;;;;;;;5.81;100.00;100643.44;6195798;28;20532;-84
2023/03/27 09:55:25;;;;;;;4.07;1.13;;;;;;;5.74;100.00;100634.41;6226561;28;20530;-84
2023/03/27 09:58:27;;;;;;;6.85;1.75;;;;;;;5.65;100.00;100634.09;6286102;28;20394;-84
2023/03/27 10:01:33;;;;;;;1.83;0.93;;;;;;;5.69;100.00;100633.84;6281244;28;20056;-84
2023/03/27 10:05:10;;;;;;;;;;;;;;;5.44;100.00;100651.53;6282834;28;20040;-85
2023/03/27 10:08:29;;;;;;;2.50;1.13;;;;;;;5.24;100.00;100645.78;6280311;28;20003;-84
2023/03/27 10:11:49;;;;;;;2.60;1.10;;;;;;;5.46;100.00;100644.56;6288714;28;20044;-85
2023/03/27 10:15:04;;;;;;;3.03;1.08;;;;;;;5.52;100.00;100634.78;6286718;28;20044;-84
2023/03/27 10:18:22;;;;;;;4.88;1.30;;;;;;;5.62;100.00;100632.53;6285559;28;20145;-84
2023/03/27 10:21:41;;;;;;;4.20;1.10;;;;;;;5.79;100.00;100640.13;6282901;28;20521;-84
2023/03/27 10:24:47;;;;;;;4.38;1.20;;;;;;;5.48;100.00;100671.00;6285885;28;20338;-85
2023/03/27 10:27:52;;;;;;;2.00;1.00;;;;;;;4.42;100.00;100659.50;6297931;28;20159;-86
2023/03/27 10:31:31;;;;;;;;;;;;;;;3.60;100.00;100657.56;6293945;28;20383;-85
2023/03/27 10:35:02;;;;;;;8.27;1.20;;;;;;;3.49;100.00;100654.69;6287664;28;20003;-86
2023/03/27 10:38:42;;;;;;;3.38;1.30;;;;;;;4.11;100.00;100639.72;6288737;28;20095;-85
2023/03/27 10:42:08;;;;;;;2.60;1.08;;;;;;;4.82;100.00;100644.59;6288707;28;20067;-86
2023/03/27 10:45:22;;;;;;;3.15;1.17;;;;;;;4.93;100.00;100667.13;6289203;28;20042;-86
2023/03/27 10:48:54;;;;;;;2.63;1.10;;;;;;;4.93;100.00;100656.84;6287963;28;20082;-86
2023/03/27 10:52:19;;;;;;;3.97;1.13;;;;;;;4.89;100.00;100656.16;6280100;28;20063;-85
2023/03/27 10:55:55;;;;;;;2.58;1.13;;;;;;;4.98;100.00;100667.69;6225621;28;20417;-85
2023/03/27 10:59:04;;;;;;;5.30;1.83;;;;;;;4.88;100.00;100669.09;6193528;28;20042;-85
2023/03/27 11:02:31;;;;;;;1.58;0.90;;;;;;;4.91;100.00;100671.50;6189490;28;20045;-85
2023/03/27 11:05:40;;;;;;;1.27;0.85;;;;;;;5.22;100.00;100672.41;6114879;29;20877;-85
2023/03/27 11:09:08;;;;;;;1.58;0.90;;;;;;;4.96;100.00;100674.63;6098652;29;20047;-85
2023/03/27 11:12:23;;;;;;;4.45;0.98;;;;;;;4.73;100.00;100681.81;6098790;29;20159;-85
2023/03/27 11:15:30;;;;;;;2.80;0.90;;;;;;;4.54;100.00;100710.13;6115024;29;20052;-85
2023/03/27 11:19:08;;;;;;;1.63;0.82;;;;;;;3.92;100.00;100708.94;6101625;29;20758;-84
2023/03/27 11:22:37;;;;;;;4.18;1.00;;;;;;;3.17;100.00;100713.28;6047482;29;20100;-83
2023/03/27 11:25:48;;;;;;;3.95;1.15;;;;;;;2.48;100.00;100759.72;6043568;29;20516;-84
2023/03/27 11:29:27;;;;;;;2.92;1.23;;;;;;;1.83;100.00;100747.91;6047045;29;20423;-84
2023/03/27 11:32:51;;;;;;;1.90;1.00;;;;;;;1.56;100.00;100752.34;6070818;29;20055;-88
2023/03/27 11:36:05;;;;;;;2.58;1.42;;;;;;;1.82;100.00;100753.91;6086644;29;20051;-85
2023/03/27 11:39:36;;;;;;;1.90;0.88;;;;;;;2.48;100.00;100744.38;6099803;29;20092;-85
2023/03/27 11:42:43;;;;;;;4.82;1.00;;;;;;;3.15;100.00;100737.28;6141897;28;20129;-87
2023/03/27 11:46:23;;;;;;;4.38;1.00;;;;;;;3.38;100.00;100733.66;6216822;28;20052;-91
2023/03/27 11:49:37;;;;;;;3.55;1.25;;;;;;;3.44;100.00;100730.84;6291862;28;20612;-92
2023/03/27 11:53:16;;;;;;;6.63;1.70;;;;;;;3.66;100.00;100741.75;6290101;28;20040;-92
2023/03/27 11:56:54;;;;;;;4.00;1.63;;;;;;;3.79;100.00;100736.88;6260302;28;20091;-92
2023/03/27 12:00:15;;;;;;;4.40;1.17;;;;;;;3.76;100.00;100736.19;6268363;28;20486;-88
2023/03/27 12:03:57;;;;;;;0.93;0.52;;;;;;;3.59;100.00;100726.75;6287540;28;20049;-88
2023/03/27 12:07:26;;;;;;;1.95;1.17;;;;;;;3.63;100.00;100743.63;6283855;28;20051;-88
2023/03/27 12:10:41;;;;;;;0.65;0.63;;;;;;;3.71;100.00;100736.41;6287244;28;20048;-87
2023/03/27 12:14:13;;;;;;;1.75;0.85;;;;;;;3.79;100.00;100733.47;6297985;28;20086;-87
2023/03/27 12:17:37;;;;;;;2.25;1.20;;;;;;;3.98;100.00;100744.50;6260560;28;20049;-88
2023/03/27 12:21:12;;;;;;;1.35;1.10;;;;;;;4.07;100.00;100733.84;6295678;28;20095;-88
2023/03/27 12:24:37;;;;;;;2.22;1.33;;;;;;;4.15;100.00;100735.16;6254934;28;20159;-89
2023/03/27 12:28:24;;;;;;;3.30;1.10;;;;;;;4.53;100.00;100736.66;6285172;28;20524;-88
2023/03/27 12:32:01;;;;;;;3.03;1.10;;;;;;;4.94;100.00;100749.13;6297340;28;20131;-88
2023/03/27 12:35:11;;;;;;;2.65;1.23;;;;;;;5.18;100.00;100743.59;6263933;28;20044;-87
2023/03/27 12:38:30;;;;;;;1.90;0.90;;;;;;;4.97;100.00;100758.41;6286073;28;20131;-87
2023/03/27 12:41:36;;;;;;;1.73;1.13;;;;;;;4.68;100.00;100745.31;6285184;28;20186;-87
2023/03/27 12:45:31;;;;;;;1.85;1.13;;;;;;;4.37;100.00;100771.66;6273173;28;20079;-87
2023/03/27 12:48:48;;;;;;;2.65;1.17;;;;;;;4.19;100.00;100785.38;6179576;28;20047;-87
2023/03/27 12:51:55;;;;;;;3.72;1.38;;;;;;;3.98;100.00;100764.19;6164930;28;20050;-87
2023/03/27 12:55:32;;;;;;;2.13;0.68;;;;;;;3.69;100.00;100786.03;6155647;28;20054;-87
2023/03/27 12:58:35;;;;;;;4.28;0.80;;;;;;;3.53;100.00;100780.75;6154750;28;20453;-87
2023/03/27 13:02:04;;;;;;;1.17;0.77;;;;;;;3.35;100.00;100790.91;6158225;28;20126;-86
2023/03/27 13:05:21;;;;;;;0.95;0.80;;;;;;;3.03;100.00;100789.78;6145654;28;20456;-86
2023/03/27 13:08:48;;;;;;;1.92;0.70;;;;;;;2.82;100.00;100793.28;6156792;28;20055;-86
2023/03/27 13:12:20;;;;;;;1.60;0.80;;;;;;;2.74;100.00;100794.41;6146318;28;20585;-85
2023/03/27 13:15:59;;;;;;;1.33;0.73;;;;;;;3.12;100.00;100793.69;6149635;28;20043;-85
2023/03/27 13:19:27;;;;;;;2.33;1.00;;;;;;;3.71;100.00;100782.50;6161901;28;20051;-86
2023/03/27 13:23:13;;;;;;;3.15;0.90;;;;;;;4.24;100.00;100771.41;6176678;28;20054;-85
2023/03/27 13:26:47;;;;;;;2.97;1.20;;;;;;;4.61;100.00;100764.47;6181903;28;20531;-86
2023/03/27 13:29:51;;;;;;;1.25;0.70;;;;;;;4.64;100.00;100764.31;6159575;28;20501;-86
2023/03/27 13:33:28;;;;;;;1.20;0.93;;;;;;;4.50;100.00;100759.91;6245802;28;20052;-86
2023/03/27 13:36:33;;;;;;;;;;;;;;;4.73;100.00;100761.28;6281965;28;20051;-87
2023/03/27 13:39:54;;;;;;;0.68;0.50;;;;;;;4.83;100.00;100769.34;6284216;28;20378;-88
2023/03/27 13:43:09;;;;;;;1.17;0.45;;;;;;;4.61;100.00;100776.47;6282796;28;20064;-86
2023/03/27 13:46:15;;;;;;;1.15;0.50;;;;;;;5.05;100.00;100778.53;6282046;28;20151;-86
2023/03/27 13:49:42;;;;;;;0.47;0.40;;;;;;;5.70;100.00;100783.63;6282613;28;20089;-86
2023/03/27 13:53:11;;;;;;;0.75;0.63;;;;;;;6.40;100.00;100787.41;6289668;28;20076;-86
2023/03/27 13:56:46;;;;;;;2.25;0.73;;;;;;;6.53;100.00;100797.00;6289902;28;20141;-86
2023/03/27 14:00:25;;;;;;;1.55;0.65;;;;;;;6.18;100.00;100798.06;6282009;28;20048;-86
2023/03/27 14:04:03;;;;;;;1.73;0.63;;;;;;;5.56;100.00;100807.47;6273576;28;20079;-86
2023/03/27 14:07:36;;;;;;;1.52;0.50;;;;;;;4.93;100.00;100842.34;6301710;28;20036;-87
2023/03/27 14:11:28;;;;;;;0.75;0.60;;;;;;;3.06;100.00;100891.13;6218272;28;20108;-86
2023/03/27 14:14:58;;;;;;;0.98;0.57;;;;;;;1.82;100.00;100859.38;6211798;28;20045;-92
2023/03/27 14:18:18;;;;;;;3.58;0.52;;;;;;;1.37;100.00;100869.53;6196669;28;20630;-90
2023/03/27 14:21:22;;;;;;;0.88;0.50;;;;;;;1.26;100.00;100836.75;6211983;28;20556;-86
2023/03/27 14:24:46;;;;;;;0.95;0.57;;;;;;;1.27;100.00;100838.41;6197071;28;20050;-90
2023/03/27 14:28:12;;;;;;;0.32;0.32;;;;;;;1.37;100.00;100823.63;6187673;28;20050;-88
2023/03/27 14:31:18;;;;;;;0.68;0.45;;;;;;;1.46;100.00;100808.78;6187979;28;20060;-87
2023/03/27 14:35:03;;;;;;;0.70;0.47;;;;;;;1.60;100.00;100808.31;6208860;28;20498;-90
2023/03/27 14:38:27;;;;;;;1.02;0.40;;;;;;;1.81;100.00;100800.72;6199216;28;20042;-89
2023/03/27 14:41:31;;;;;;;1.15;0.65;;;;;;;1.93;100.00;100811.28;6197556;28;20054;-86
2023/03/27 14:44:35;;;;;;;0.57;0.40;;;;;;;1.92;100.00;100829.22;6188490;28;20708;-84
2023/03/27 14:47:52;;;;;;;0.93;0.60;;;;;;;1.85;100.00;100832.91;6283605;28;20317;-87
2023/03/27 14:51:00;;;;;;;1.02;0.70;;;;;;;2.23;100.00;100833.97;6289898;28;20550;-92
2023/03/27 14:54:25;;;;;;;1.77;0.80;;;;;;;2.45;100.00;100836.50;6299525;28;20095;-92
2023/03/27 14:57:40;;;;;;;0.93;0.77;;;;;;;2.54;100.00;100837.88;6270391;28;20147;-90
2023/03/27 15:00:53;;;;;;;0.85;0.60;;;;;;;2.54;100.00;100843.81;6288088;28;20290;-89
2023/03/27 15:03:58;;;;;;;0.88;0.60;;;;;;;2.35;100.00;100855.66;6282788;28;20052;-91
2023/03/27 15:07:41;;;;;;;2.25;0.70;;;;;;;2.48;100.00;100848.31;6292449;28;20098;-94